createdAt,value
2022-08-03T00:01:48.868Z,20.42
2022-08-03T00:04:15.303Z,20.34
2022-08-03T00:06:41.789Z,20.37
2022-08-03T00:09:08.874Z,20.28
2022-08-03T00:11:36.530Z,20.10
2022-08-03T00:14:05.112Z,20.08
2022-08-03T00:16:31.650Z,20.11
2022-08-03T00:18:58.258Z,20.14
2022-08-03T00:21:27.669Z,20.14
2022-08-03T00:23:54.098Z,20.13
2022-08-03T00:26:21.875Z,20.16
2022-08-03T00:28:49.007Z,20.04
2022-08-03T00:31:15.854Z,20.04
2022-08-03T00:33:58.244Z,20.04
2022-08-03T00:36:26.818Z,19.96
2022-08-03T00:38:53.216Z,19.97
2022-08-03T00:41:19.776Z,19.89
2022-08-03T00:43:47.402Z,19.91
2022-08-03T00:46:16.458Z,19.84
2022-08-03T00:48:47.225Z,19.78
2022-08-03T00:51:13.816Z,19.77
2022-08-03T00:53:40.738Z,19.74
2022-08-03T00:56:07.289Z,19.65
2022-08-03T00:58:33.700Z,19.79
2022-08-03T01:01:00.267Z,19.75
2022-08-03T01:03:26.779Z,19.73
2022-08-03T01:06:00.437Z,19.68
2022-08-03T01:08:33.214Z,19.59
2022-08-03T01:11:19.025Z,19.54
2022-08-03T01:14:19.221Z,19.57
2022-08-03T01:17:28.153Z,19.59
2022-08-03T01:20:02.509Z,19.52
2022-08-03T01:22:50.686Z,19.43
2022-08-03T01:25:38.995Z,19.34
2022-08-03T01:28:11.445Z,19.42
2022-08-03T01:30:40.787Z,19.31
2022-08-03T01:33:17.522Z,19.20
2022-08-03T01:35:59.461Z,19.29
2022-08-03T01:38:29.359Z,19.35
2022-08-03T01:40:57.777Z,19.32
2022-08-03T01:44:28.606Z,19.32
2022-08-03T01:46:16.888Z,19.19
2022-08-03T01:48:46.219Z,19.06
2022-08-03T01:51:15.603Z,18.98
2022-08-03T01:53:43.281Z,18.99
2022-08-03T01:56:10.668Z,19.01
2022-08-03T01:58:38.715Z,19.06
2022-08-03T02:01:06.020Z,19.13
2022-08-03T02:03:38.260Z,19.10
2022-08-03T02:07:01.376Z,19.04
2022-08-03T02:09:14.855Z,19.09
2022-08-03T02:11:42.683Z,19.02
2022-08-03T02:14:10.560Z,18.91
2022-08-03T02:16:37.200Z,18.96
2022-08-03T02:19:06.508Z,18.90
2022-08-03T02:21:57.471Z,18.92
2022-08-03T02:24:23.279Z,18.78
2022-08-03T02:26:53.164Z,18.79
2022-08-03T02:29:39.709Z,18.69
2022-08-03T02:32:10.794Z,18.66
2022-08-03T02:34:39.815Z,18.66
2022-08-03T02:37:08.497Z,18.66
2022-08-03T02:39:36.790Z,18.52
2022-08-03T02:42:05.720Z,18.46
2022-08-03T02:44:34.085Z,18.43
2022-08-03T02:47:10.240Z,18.44
2022-08-03T02:49:50.578Z,18.41
2022-08-03T02:52:20.636Z,18.50
2022-08-03T02:54:50.965Z,18.43
2022-08-03T02:57:19.368Z,18.57
2022-08-03T02:59:46.083Z,18.54
2022-08-03T03:02:15.818Z,18.61
2022-08-03T03:05:52.989Z,18.65
2022-08-03T03:07:31.323Z,18.52
2022-08-03T03:10:09.320Z,18.40
2022-08-03T03:12:40.792Z,18.37
2022-08-03T03:15:07.614Z,18.35
2022-08-03T03:17:37.267Z,18.38
2022-08-03T03:20:04.648Z,18.28
2022-08-03T03:22:33.473Z,18.30
2022-08-03T03:25:00.617Z,18.29
2022-08-03T03:27:27.240Z,18.22
2022-08-03T03:29:54.047Z,18.18
2022-08-03T03:32:20.547Z,18.20
2022-08-03T03:34:47.911Z,18.16
2022-08-03T03:37:14.388Z,18.20
2022-08-03T03:39:40.853Z,18.04
2022-08-03T03:42:07.582Z,18.06
2022-08-03T03:44:34.137Z,17.97
2022-08-03T03:47:00.836Z,17.87
2022-08-03T03:49:27.647Z,17.95
2022-08-03T03:51:55.517Z,17.92
2022-08-03T03:54:22.380Z,17.76
2022-08-03T03:56:52.187Z,17.75
2022-08-03T03:59:18.688Z,17.82
2022-08-03T04:01:45.627Z,17.88
2022-08-03T04:04:30.788Z,17.83
2022-08-03T04:07:15.640Z,17.82
2022-08-03T04:10:14.746Z,17.79
2022-08-03T04:12:50.184Z,17.76
2022-08-03T04:15:21.349Z,17.79
2022-08-03T04:17:50.216Z,17.83
2022-08-03T04:20:20.068Z,17.82
2022-08-03T04:22:49.613Z,17.69
2022-08-03T04:25:19.332Z,17.62
2022-08-03T04:28:07.990Z,17.72
2022-08-03T04:30:38.712Z,17.76
2022-08-03T04:33:06.291Z,17.81
2022-08-03T04:36:02.266Z,17.81
2022-08-03T04:38:23.675Z,17.76
2022-08-03T04:40:50.776Z,17.68
2022-08-03T04:43:18.542Z,17.75
2022-08-03T04:45:47.821Z,17.80
2022-08-03T04:48:15.340Z,17.84
2022-08-03T04:50:42.842Z,17.77
2022-08-03T04:53:09.392Z,17.78
2022-08-03T04:55:36.441Z,17.86
2022-08-03T04:58:04.304Z,17.91
2022-08-03T05:00:30.987Z,17.92
2022-08-03T05:02:57.759Z,17.79
2022-08-03T05:05:24.881Z,17.83
2022-08-03T05:07:52.075Z,17.84
2022-08-03T05:10:19.864Z,17.91
2022-08-03T05:12:48.364Z,17.95
2022-08-03T05:15:15.833Z,18.05
2022-08-03T05:17:42.710Z,17.99
2022-08-03T05:20:13.044Z,17.99
2022-08-03T05:22:39.580Z,18.08
2022-08-03T05:25:06.473Z,18.15
2022-08-03T05:27:32.929Z,18.10
2022-08-03T05:30:30.839Z,18.13
2022-08-03T05:32:45.961Z,18.19
2022-08-03T05:36:01.182Z,18.19
2022-08-03T05:37:58.950Z,18.29
2022-08-03T05:40:25.367Z,18.34
2022-08-03T05:42:53.652Z,18.34
2022-08-03T05:45:20.243Z,18.45
2022-08-03T05:47:47.887Z,18.52
2022-08-03T05:50:14.648Z,18.56
2022-08-03T05:52:41.431Z,18.69
2022-08-03T05:55:08.767Z,18.77
2022-08-03T05:57:35.387Z,18.87
2022-08-03T06:00:10.033Z,18.96
2022-08-03T06:02:39.420Z,19.03
2022-08-03T06:05:06.806Z,19.10
2022-08-03T06:07:33.344Z,19.18
2022-08-03T06:10:35.662Z,19.22
2022-08-03T06:12:49.398Z,19.32
2022-08-03T06:15:16.511Z,19.41
2022-08-03T06:17:50.638Z,19.41
2022-08-03T06:20:18.839Z,19.44
2022-08-03T06:22:50.873Z,19.47
2022-08-03T06:25:19.309Z,19.55
2022-08-03T06:27:48.075Z,19.60
2022-08-03T06:30:19.291Z,19.65
2022-08-03T06:32:52.096Z,19.71
2022-08-03T06:35:19.501Z,19.78
2022-08-03T06:37:51.857Z,19.84
2022-08-03T06:40:29.029Z,19.91
2022-08-03T06:42:56.900Z,19.99
2022-08-03T06:45:23.694Z,20.02
2022-08-03T06:48:00.940Z,20.08
2022-08-03T06:50:27.524Z,20.19
2022-08-03T06:52:54.047Z,20.18
2022-08-03T06:55:20.483Z,20.29
2022-08-03T06:57:46.881Z,20.34
2022-08-03T07:00:14.576Z,20.42
2022-08-03T07:02:41.568Z,20.49
2022-08-03T07:05:09.648Z,20.53
2022-08-03T07:07:36.857Z,20.59
2022-08-03T07:10:04.436Z,20.67
2022-08-03T07:12:31.676Z,20.77
2022-08-03T07:15:01.704Z,20.87
2022-08-03T07:17:34.511Z,20.93
2022-08-03T07:20:02.527Z,21.01
2022-08-03T07:22:29.344Z,21.08
2022-08-03T07:24:56.559Z,21.16
2022-08-03T07:27:23.390Z,21.17
2022-08-03T07:29:49.838Z,21.28
2022-08-03T07:32:16.429Z,21.37
2022-08-03T07:34:43.043Z,21.45
2022-08-03T07:37:09.477Z,21.58
2022-08-03T07:39:35.910Z,21.63
2022-08-03T07:42:02.417Z,21.72
2022-08-03T07:44:28.933Z,21.87
2022-08-03T07:46:55.346Z,21.98
2022-08-03T07:49:23.404Z,22.05
2022-08-03T07:52:08.548Z,22.15
2022-08-03T07:54:35.008Z,22.28
2022-08-03T07:57:01.419Z,22.39
2022-08-03T07:59:28.123Z,22.39
2022-08-03T08:02:15.008Z,22.52
2022-08-03T08:04:41.962Z,22.63
2022-08-03T08:07:08.435Z,22.77
2022-08-03T08:09:35.208Z,22.86
2022-08-03T08:12:01.699Z,22.96
2022-08-03T08:14:28.168Z,22.99
2022-08-03T08:16:56.105Z,23.07
2022-08-03T08:19:22.565Z,23.23
2022-08-03T08:21:53.702Z,23.40
2022-08-03T08:24:30.437Z,23.46
2022-08-03T08:26:57.747Z,23.56
2022-08-03T08:29:24.262Z,23.61
2022-08-03T08:31:50.710Z,23.66
2022-08-03T08:34:17.232Z,23.80
2022-08-03T08:36:43.794Z,23.85
2022-08-03T08:39:10.248Z,24.01
2022-08-03T08:41:36.725Z,24.14
2022-08-03T08:44:03.479Z,24.24
2022-08-03T08:46:32.609Z,24.49
2022-08-03T08:48:59.995Z,24.55
2022-08-03T08:51:59.695Z,24.53
2022-08-03T08:54:22.945Z,24.60
2022-08-03T08:56:52.616Z,24.85
2022-08-03T08:59:19.759Z,25.19
2022-08-03T09:01:46.363Z,25.18
2022-08-03T09:04:13.051Z,25.16
2022-08-03T09:06:39.487Z,25.33
2022-08-03T09:09:06.635Z,25.25
2022-08-03T09:12:00.418Z,25.41
2022-08-03T09:14:39.173Z,25.48
2022-08-03T09:17:06.336Z,25.77
2022-08-03T09:19:34.128Z,25.89
2022-08-03T09:22:18.812Z,26.04
2022-08-03T09:25:24.283Z,26.27
2022-08-03T09:27:51.469Z,26.17
2022-08-03T09:30:34.235Z,26.16
2022-08-03T09:33:03.535Z,26.53
2022-08-03T09:35:53.049Z,26.52
2022-08-03T09:38:26.192Z,26.62
2022-08-03T09:40:59.179Z,26.83
2022-08-03T09:43:27.523Z,26.81
2022-08-03T09:46:03.693Z,26.83
2022-08-03T09:48:31.554Z,27.01
2022-08-03T09:51:14.243Z,26.98
2022-08-03T09:53:58.773Z,26.99
2022-08-03T09:56:41.919Z,27.20
2022-08-03T09:59:09.102Z,27.27
2022-08-03T10:01:37.261Z,27.27
2022-08-03T10:04:05.330Z,27.39
2022-08-03T10:06:32.047Z,27.50
2022-08-03T10:09:07.478Z,27.80
2022-08-03T10:11:40.805Z,27.74
2022-08-03T10:14:10.486Z,27.77
2022-08-03T10:16:39.377Z,27.81
2022-08-03T10:19:07.896Z,27.98
2022-08-03T10:21:36.511Z,28.02
2022-08-03T10:24:05.363Z,28.13
2022-08-03T10:26:39.071Z,28.33
2022-08-03T10:29:24.991Z,28.48
2022-08-03T10:31:58.227Z,28.47
2022-08-03T10:34:40.341Z,28.48
2022-08-03T10:37:12.475Z,28.63
2022-08-03T10:39:53.156Z,28.67
2022-08-03T10:42:24.217Z,28.83
2022-08-03T10:45:14.876Z,29.00
2022-08-03T10:47:41.653Z,29.11
2022-08-03T10:50:09.581Z,29.14
2022-08-03T10:52:41.157Z,29.30
2022-08-03T10:55:49.379Z,29.30
2022-08-03T10:58:30.633Z,29.40
2022-08-03T11:00:57.375Z,29.59
2022-08-03T11:03:23.877Z,29.66
2022-08-03T11:05:52.151Z,29.67
2022-08-03T11:08:34.818Z,29.80
2022-08-03T11:11:17.678Z,29.85
2022-08-03T11:14:03.443Z,29.94
2022-08-03T11:16:36.511Z,29.92
2022-08-03T11:19:08.360Z,29.97
2022-08-03T11:21:50.197Z,30.15
2022-08-03T11:24:39.204Z,30.18
2022-08-03T11:27:14.536Z,30.22
2022-08-03T11:29:58.717Z,30.26
2022-08-03T11:32:37.516Z,30.30
2022-08-03T11:35:28.899Z,30.28
2022-08-03T11:38:03.311Z,30.37
2022-08-03T11:40:37.731Z,30.29
2022-08-03T11:43:10.183Z,30.07
2022-08-03T11:45:37.364Z,30.08
2022-08-03T11:48:22.833Z,30.22
2022-08-03T11:50:50.077Z,30.32
2022-08-03T11:53:18.237Z,30.36
2022-08-03T11:55:48.845Z,30.46
2022-08-03T11:59:13.166Z,30.53
2022-08-03T12:01:07.687Z,30.65
2022-08-03T12:03:35.073Z,30.72
2022-08-03T12:06:02.361Z,30.72
2022-08-03T12:08:33.262Z,30.74
2022-08-03T12:11:03.095Z,30.45
2022-08-03T12:14:35.761Z,30.23
2022-08-03T12:16:33.637Z,30.39
2022-08-03T12:19:02.861Z,30.54
2022-08-03T12:21:30.134Z,30.64
2022-08-03T12:24:04.494Z,30.81
2022-08-03T12:26:54.493Z,30.88
2022-08-03T12:29:26.242Z,30.91
2022-08-03T12:31:52.695Z,30.99
2022-08-03T12:34:19.110Z,31.04
2022-08-03T12:36:54.368Z,31.08
2022-08-03T12:39:25.144Z,31.08
2022-08-03T12:41:55.959Z,31.11
2022-08-03T12:44:33.388Z,31.14
2022-08-03T12:47:01.136Z,30.96
2022-08-03T12:49:30.473Z,30.68
2022-08-03T12:52:01.735Z,30.39
2022-08-03T12:54:33.848Z,30.45
2022-08-03T12:57:10.201Z,30.53
2022-08-03T12:59:42.486Z,30.70
2022-08-03T13:02:25.751Z,30.82
2022-08-03T13:04:54.489Z,30.85
2022-08-03T13:07:22.577Z,30.84
2022-08-03T13:09:52.939Z,30.73
2022-08-03T13:12:27.601Z,30.72
2022-08-03T13:14:58.996Z,30.61
2022-08-03T13:17:26.912Z,30.36
2022-08-03T13:19:53.883Z,30.43
2022-08-03T13:22:28.968Z,30.56
2022-08-03T13:24:57.350Z,30.65
2022-08-03T13:28:04.379Z,30.67
2022-08-03T13:30:11.499Z,30.79
2022-08-03T13:32:38.288Z,30.89
2022-08-03T13:35:05.579Z,30.62
2022-08-03T13:37:32.546Z,30.25
2022-08-03T13:40:02.474Z,30.10
2022-08-03T13:42:30.346Z,30.20
2022-08-03T13:44:56.899Z,30.11
2022-08-03T13:47:23.560Z,29.99
2022-08-03T13:49:59.967Z,30.10
2022-08-03T13:52:35.813Z,30.28
2022-08-03T13:55:05.128Z,30.30
2022-08-03T13:58:02.554Z,30.32
2022-08-03T14:00:27.874Z,30.13
2022-08-03T14:03:16.381Z,30.00
2022-08-03T14:05:43.687Z,30.05
2022-08-03T14:08:10.863Z,30.21
2022-08-03T14:10:39.681Z,30.32
2022-08-03T14:13:06.281Z,30.31
2022-08-03T14:15:38.310Z,30.28
2022-08-03T14:18:07.169Z,30.31
2022-08-03T14:20:50.012Z,30.27
2022-08-03T14:23:17.936Z,30.28
2022-08-03T14:25:52.579Z,30.29
2022-08-03T14:28:22.362Z,30.22
2022-08-03T14:30:49.149Z,30.21
2022-08-03T14:33:15.852Z,30.34
2022-08-03T14:35:42.348Z,30.37
2022-08-03T14:38:08.856Z,30.39
2022-08-03T14:40:35.340Z,30.31
2022-08-03T14:43:02.500Z,30.21
2022-08-03T14:45:28.976Z,30.09
2022-08-03T14:50:29.165Z,30.12
2022-08-03T14:50:45.650Z,30.15
2022-08-03T14:53:17.626Z,30.12
2022-08-03T14:55:50.334Z,30.09
2022-08-03T14:58:22.323Z,30.09
2022-08-03T15:00:50.618Z,30.05
2022-08-03T15:03:20.300Z,30.00
2022-08-03T15:05:47.170Z,29.94
2022-08-03T15:08:13.616Z,29.93
2022-08-03T15:10:40.357Z,29.90
2022-08-03T15:13:10.623Z,29.84
2022-08-03T15:15:37.095Z,29.81
2022-08-03T15:18:03.707Z,29.75
2022-08-03T15:20:43.247Z,29.71
2022-08-03T15:23:12.323Z,29.64
2022-08-03T15:26:06.494Z,29.60
2022-08-03T15:28:25.405Z,29.60
2022-08-03T15:30:52.979Z,29.54
2022-08-03T15:33:20.112Z,29.57
2022-08-03T15:35:47.439Z,29.48
2022-08-03T15:38:14.013Z,29.58
2022-08-03T15:40:40.485Z,29.56
2022-08-03T15:43:07.258Z,29.49
2022-08-03T15:45:35.479Z,29.43
2022-08-03T15:48:06.974Z,29.40
2022-08-03T15:50:33.489Z,29.34
2022-08-03T15:52:59.968Z,29.25
2022-08-03T15:55:26.632Z,29.25
2022-08-03T15:59:03.435Z,29.20
2022-08-03T16:00:40.269Z,29.14
2022-08-03T16:03:06.684Z,29.09
2022-08-03T16:05:33.332Z,29.09
2022-08-03T16:08:03.822Z,29.22
2022-08-03T16:10:31.673Z,29.19
2022-08-03T16:13:01.183Z,29.14
2022-08-03T16:15:27.765Z,29.14
2022-08-03T16:17:54.537Z,29.10
2022-08-03T16:20:29.205Z,29.11
2022-08-03T16:23:00.668Z,29.31
2022-08-03T16:25:35.716Z,29.34
2022-08-03T16:28:07.715Z,29.41
2022-08-03T16:30:40.381Z,29.41
2022-08-03T16:33:07.015Z,29.44
2022-08-03T16:35:33.636Z,29.43
2022-08-03T16:38:00.516Z,29.32
2022-08-03T16:40:27.231Z,29.31
2022-08-03T16:42:54.341Z,29.25
2022-08-03T16:45:20.821Z,29.22
2022-08-03T16:47:47.241Z,29.25
2022-08-03T16:50:27.774Z,29.28
2022-08-03T16:52:54.231Z,29.31
2022-08-03T16:55:42.787Z,29.24
2022-08-03T16:58:07.967Z,29.26
2022-08-03T17:00:41.746Z,29.14
2022-08-03T17:03:16.395Z,29.16
2022-08-03T17:05:49.619Z,29.14
2022-08-03T17:08:18.921Z,29.11
2022-08-03T17:10:52.910Z,29.10
2022-08-03T17:13:22.022Z,29.19
2022-08-03T17:15:58.191Z,29.22
2022-08-03T17:18:34.138Z,29.10
2022-08-03T17:21:05.696Z,29.12
2022-08-03T17:23:49.593Z,29.01
2022-08-03T17:26:21.973Z,28.99
2022-08-03T17:28:57.425Z,28.97
2022-08-03T17:31:31.224Z,28.99
2022-08-03T17:34:12.648Z,29.16
2022-08-03T17:37:03.173Z,29.01
2022-08-03T17:39:48.535Z,28.98
2022-08-03T17:42:30.658Z,29.03
2022-08-03T17:45:02.057Z,28.99
2022-08-03T17:47:42.578Z,28.96
2022-08-03T17:50:23.427Z,28.90
2022-08-03T17:53:07.377Z,28.83
2022-08-03T17:55:56.823Z,28.84
2022-08-03T17:58:38.553Z,28.92
2022-08-03T18:02:00.101Z,28.87
2022-08-03T18:04:21.786Z,28.82
2022-08-03T18:06:59.384Z,28.86
2022-08-03T18:10:04.006Z,28.90
2022-08-03T18:12:29.357Z,28.87
2022-08-03T18:15:01.079Z,28.82
2022-08-03T18:17:58.346Z,28.78
2022-08-03T18:20:31.194Z,28.70
2022-08-03T18:25:56.178Z,28.62
2022-08-03T18:28:28.765Z,28.55
2022-08-03T18:30:56.407Z,28.43
2022-08-03T18:34:19.855Z,28.33
2022-08-03T18:36:21.642Z,28.20
2022-08-03T18:38:58.409Z,28.08
2022-08-03T18:41:32.505Z,27.98
2022-08-03T18:44:08.543Z,27.90
2022-08-03T18:47:06.879Z,27.78
2022-08-03T18:50:19.509Z,27.66
2022-08-03T18:52:54.604Z,27.57
2022-08-03T18:55:32.943Z,27.49
2022-08-03T19:01:03.356Z,27.35
2022-08-03T19:03:42.739Z,27.27
2022-08-03T19:06:20.009Z,27.21
2022-08-03T19:09:02.507Z,27.14
2022-08-03T19:12:14.443Z,27.08
2022-08-03T19:14:39.322Z,27.01
2022-08-03T19:17:10.995Z,26.95
2022-08-03T19:19:44.095Z,26.88
2022-08-03T19:22:12.573Z,26.82
2022-08-03T19:24:45.616Z,26.74
2022-08-03T19:27:12.793Z,26.71
2022-08-03T19:29:58.719Z,26.66
2022-08-03T19:32:30.724Z,26.59
2022-08-03T19:34:59.405Z,26.51
2022-08-03T19:37:27.519Z,26.45
2022-08-03T19:40:05.864Z,26.37
2022-08-03T19:42:40.608Z,26.33
2022-08-03T19:45:13.953Z,26.29
2022-08-03T19:47:58.464Z,26.25
2022-08-03T19:50:25.227Z,26.20
2022-08-03T19:52:52.847Z,26.16
2022-08-03T19:55:19.943Z,26.14
2022-08-03T19:57:49.233Z,26.08
2022-08-03T20:00:19.370Z,26.08
2022-08-03T20:02:46.361Z,26.03
2022-08-03T20:05:15.264Z,25.95
2022-08-03T20:08:04.032Z,25.91
2022-08-03T20:10:32.116Z,25.83
2022-08-03T20:12:59.753Z,25.72
2022-08-03T20:15:31.710Z,25.70
2022-08-03T20:17:59.300Z,25.64
2022-08-03T20:20:33.680Z,25.61
2022-08-03T20:23:03.227Z,25.61
2022-08-03T20:28:50.665Z,25.50
2022-08-03T20:31:23.940Z,25.37
2022-08-03T20:34:00.239Z,25.32
2022-08-03T20:36:26.964Z,25.32
2022-08-03T20:38:57.616Z,25.21
2022-08-03T20:41:24.880Z,25.23
2022-08-03T20:43:51.375Z,25.15
2022-08-03T20:46:32.617Z,25.10
2022-08-03T20:49:05.834Z,25.04
2022-08-03T20:51:52.568Z,25.00
2022-08-03T20:54:29.563Z,24.97
2022-08-03T20:56:59.731Z,24.88
2022-08-03T20:59:36.600Z,24.85
2022-08-03T21:02:13.597Z,24.83
2022-08-03T21:04:47.406Z,24.79
2022-08-03T21:07:23.939Z,24.76
2022-08-03T21:09:52.839Z,24.77
2022-08-03T21:12:38.143Z,24.72
2022-08-03T21:13:00.963Z,27.43
2022-08-03T21:13:04.851Z,28.68
2022-08-03T21:13:06.879Z,25.57
2022-08-03T21:15:09.605Z,24.67
2022-08-03T21:17:58.066Z,24.66
2022-08-03T21:20:31.936Z,24.60
2022-08-03T21:23:00.550Z,24.62
2022-08-03T21:25:31.319Z,24.58
2022-08-03T21:27:59.171Z,24.54
2022-08-03T21:30:29.913Z,24.40
2022-08-03T21:32:57.964Z,24.44
2022-08-03T21:35:25.143Z,24.38
2022-08-03T21:38:11.931Z,24.38
2022-08-03T21:40:40.164Z,24.34
2022-08-03T21:43:07.134Z,24.29
2022-08-03T21:45:44.263Z,24.16
2022-08-03T21:48:13.572Z,24.11
2022-08-03T21:50:42.383Z,24.09
2022-08-03T21:53:10.900Z,24.09
2022-08-03T21:55:50.431Z,24.06
2022-08-03T21:58:29.406Z,24.01
2022-08-03T22:00:58.107Z,24.01
2022-08-03T22:03:25.864Z,23.95
2022-08-03T22:05:53.124Z,23.87
2022-08-03T22:08:34.471Z,23.83
2022-08-03T22:11:04.306Z,23.75
2022-08-03T22:13:43.185Z,23.75
2022-08-03T22:16:11.533Z,23.77
2022-08-03T22:18:39.590Z,23.68
2022-08-03T22:21:07.603Z,23.67
2022-08-03T22:23:40.658Z,23.57
2022-08-03T22:26:13.130Z,23.60
2022-08-03T22:28:40.004Z,23.55
2022-08-03T22:31:37.642Z,23.54
2022-08-03T22:33:54.440Z,23.48
2022-08-03T22:36:23.439Z,23.43
2022-08-03T22:38:53.606Z,23.37
2022-08-03T22:41:21.054Z,23.37
2022-08-03T22:43:49.380Z,23.34
2022-08-03T22:46:20.737Z,23.26
2022-08-03T22:48:48.352Z,23.25
2022-08-03T22:51:15.527Z,23.23
2022-08-03T22:53:42.304Z,23.23
2022-08-03T22:56:08.847Z,23.15
2022-08-03T22:58:35.349Z,23.06
2022-08-03T23:01:05.672Z,23.04
2022-08-03T23:03:58.780Z,23.00
2022-08-03T23:06:25.256Z,22.94
2022-08-03T23:08:51.793Z,22.92
2022-08-03T23:11:18.948Z,22.97
2022-08-03T23:13:51.831Z,22.99
2022-08-03T23:16:27.939Z,22.94
2022-08-03T23:18:57.619Z,22.84
2022-08-03T23:22:01.025Z,22.84
2022-08-03T23:24:26.026Z,22.79
2022-08-03T23:26:57.123Z,22.80
2022-08-03T23:29:23.864Z,22.69
2022-08-03T23:31:52.269Z,22.69
2022-08-03T23:34:37.669Z,22.56
2022-08-03T23:37:05.478Z,22.58
2022-08-03T23:39:35.015Z,22.60
2022-08-03T23:42:03.182Z,22.56
2022-08-03T23:44:34.535Z,22.55
2022-08-03T23:47:01.053Z,22.52
2022-08-03T23:49:27.567Z,22.49
2022-08-03T23:52:28.723Z,22.45
2022-08-03T23:55:13.697Z,22.57
2022-08-03T23:58:01.247Z,22.43
